Time;durP1;ratioP1;P1;durP2;ratioP2;P2;SDS_P1;SDS_P2;PMS_P1;PMS_P2;Temp;Humidity;BMP_temperature;BMP_pressure;BME280_temperature;BME280_humidity;BME280_pressure;Samples;Min_cycle;Max_cycle;Signal;HPM_P1;HPM_P2
2023/03/29 00:00:31;;;;;;;;;;;;;;;19.41;56.28;99640.31;2076084;28;20586;-54
2023/03/29 00:01:31;;;;;;;;;;;;;;;19.40;56.46;99647.56;2078039;28;19933;-51
2023/03/29 00:02:33;;;;;;;;;;;;;;;19.39;56.27;99643.19;2079084;28;19940;-56
2023/03/29 00:03:33;;;;;;;;;;;;;;;19.39;56.27;99635.13;2084978;27;20991;-54
2023/03/29 00:04:37;;;;;;;;;;;;;;;19.38;56.13;99638.00;2080191;28;19932;-55
2023/03/29 00:05:39;;;;;;;;;;;;;;;19.39;56.43;99628.91;2077024;28;19933;-56
2023/03/29 00:06:41;;;;;;;;;;;;;;;19.36;56.15;99638.19;2075517;28;19981;-53
2023/03/29 00:07:41;;;;;;;;;;;;;;;19.36;56.20;99635.50;2076466;28;22196;-54
2023/03/29 00:08:44;;;;;;;;;;;;;;;19.35;56.28;99625.75;2069156;28;20021;-54
2023/03/29 00:09:45;;;;;;;;;;;;;;;19.35;56.38;99625.75;2080374;28;20895;-55
2023/03/29 00:10:48;;;;;;;;;;;;;;;19.34;55.90;99625.94;2080277;28;19930;-53
2023/03/29 00:11:49;;;;;;;;;;;;;;;19.34;56.32;99623.25;2078001;28;22226;-52
2023/03/29 00:12:51;;;;;;;;;;;;;;;19.33;56.13;99624.25;2081132;28;20509;-54
2023/03/29 00:13:52;;;;;;;;;;;;;;;19.32;56.36;99619.91;2080671;28;19932;-55
2023/03/29 00:14:54;;;;;;;;;;;;;;;19.31;56.54;99621.75;2079715;28;21116;-53
2023/03/29 00:15:55;;;;;;;;;;;;;;;19.31;56.60;99618.25;2080911;28;19977;-54
2023/03/29 00:16:56;;;;;;;;;;;;;;;19.31;56.52;99620.94;2075792;28;19954;-55
2023/03/29 00:17:57;;;;;;;;;;;;;;;19.29;56.47;99617.59;2077392;28;20007;-55
2023/03/29 00:18:58;;;;;;;;;;;;;;;19.30;56.43;99622.75;2087051;28;20484;-52
2023/03/29 00:20:00;;;;;;;;;;;;;;;19.29;56.04;99626.47;2079239;28;19935;-55
2023/03/29 00:21:02;;;;;;;;;;;;;;;19.30;55.96;99621.94;2078065;28;19933;-55
2023/03/29 00:22:04;;;;;;;;;;;;;;;19.29;56.22;99625.66;2082534;28;19973;-57
2023/03/29 00:23:06;;;;;;;;;;;;;;;19.28;56.24;99624.81;2082337;28;19960;-55
2023/03/29 00:24:06;;;;;;;;;;;;;;;19.27;56.39;99620.44;2084330;28;19973;-55
2023/03/29 00:25:08;;;;;;;;;;;;;;;19.26;56.28;99629.53;2086326;28;19928;-53
2023/03/29 00:26:08;;;;;;;;;;;;;;;19.26;55.70;99624.16;2077312;28;19997;-57
2023/03/29 00:27:10;;;;;;;;;;;;;;;19.26;55.96;99624.16;2076426;28;20570;-53
2023/03/29 00:28:12;;;;;;;;;;;;;;;19.27;55.99;99622.31;2087462;28;19936;-53
2023/03/29 00:29:14;;;;;;;;;;;;;;;19.26;56.22;99628.72;2085736;28;19925;-54
2023/03/29 00:30:14;;;;;;;;;;;;;;;19.23;56.37;99621.84;2086207;28;19977;-53
2023/03/29 00:31:16;;;;;;;;;;;;;;;19.24;55.91;99623.50;2084511;28;19933;-51
2023/03/29 00:32:17;;;;;;;;;;;;;;;19.23;55.91;99624.53;2086498;28;19936;-54
2023/03/29 00:33:19;;;;;;;;;;;;;;;19.25;56.00;99627.03;2087686;28;19967;-54
2023/03/29 00:34:20;;;;;;;;;;;;;;;19.22;55.71;99625.53;2085510;28;19940;-55
2023/03/29 00:35:23;;;;;;;;;;;;;;;19.20;56.11;99630.28;2086201;28;20456;-52
2023/03/29 00:36:23;;;;;;;;;;;;;;;19.20;56.24;99624.91;2087024;28;19954;-55
2023/03/29 00:37:25;;;;;;;;;;;;;;;19.18;56.08;99627.75;2089206;28;20480;-55
2023/03/29 00:38:26;;;;;;;;;;;;;;;19.18;55.79;99630.44;2088047;28;19932;-50
2023/03/29 00:39:28;;;;;;;;;;;;;;;19.18;55.97;99637.69;2087474;28;19968;-55
2023/03/29 00:40:28;;;;;;;;;;;;;;;19.17;55.85;99644.09;2088204;28;19990;-53
2023/03/29 00:41:30;;;;;;;;;;;;;;;19.17;56.09;99652.16;2089577;28;20371;-50
2023/03/29 00:42:31;;;;;;;;;;;;;;;19.15;56.03;99640.75;2088577;28;19928;-52
2023/03/29 00:43:47;;;;;;;;;;;;;;;19.16;55.65;99643.25;2088756;28;19929;-58
2023/03/29 00:44:54;;;;;;;;;;;;;;;19.15;55.81;99638.88;2088162;28;19990;-56
2023/03/29 00:45:55;;;;;;;;;;;;;;;19.14;55.86;99641.78;2087572;28;19968;-51
2023/03/29 00:46:56;;;;;;;;;;;;;;;19.15;55.86;99638.06;2089863;28;19928;-54
2023/03/29 00:48:01;;;;;;;;;;;;;;;19.10;55.87;99641.28;2087636;28;20556;-56
2023/03/29 00:49:03;;;;;;;;;;;;;;;19.12;55.65;99644.63;2087139;28;19932;-52
2023/03/29 00:50:08;;;;;;;;;;;;;;;19.12;55.85;99638.44;2087386;28;20502;-55
2023/03/29 00:51:13;;;;;;;;;;;;;;;19.12;55.80;99641.13;2084513;28;19929;-55
2023/03/29 00:52:14;;;;;;;;;;;;;;;19.11;55.97;99640.28;2087047;28;19939;-53
2023/03/29 00:53:17;;;;;;;;;;;;;;;19.10;55.59;99640.47;2085674;28;19935;-54
2023/03/29 00:54:18;;;;;;;;;;;;;;;19.10;55.69;99641.28;2077488;28;19960;-54
2023/03/29 00:55:22;;;;;;;;;;;;;;;19.09;55.55;99638.78;2075075;28;21950;-52
2023/03/29 00:56:25;;;;;;;;;;;;;;;19.09;55.94;99639.63;2078860;28;20818;-57
2023/03/29 00:57:28;;;;;;;;;;;;;;;19.08;55.46;99637.94;2077081;28;20522;-52
2023/03/29 00:58:32;;;;;;;;;;;;;;;19.08;55.66;99637.94;2072204;28;19933;-57
2023/03/29 00:59:34;;;;;;;;;;;;;;;19.08;55.71;99631.72;2073965;28;21280;-57
2023/03/29 01:00:37;;;;;;;;;;;;;;;19.06;55.49;99631.94;2076078;28;21289;-56
2023/03/29 01:01:41;;;;;;;;;;;;;;;19.05;55.77;99627.53;2078821;28;19928;-54
2023/03/29 01:02:42;;;;;;;;;;;;;;;19.05;55.83;99627.53;2077160;28;19925;-57
2023/03/29 01:03:46;;;;;;;;;;;;;;;19.05;55.94;99630.25;2078400;28;19932;-56
2023/03/29 01:04:49;;;;;;;;;;;;;;;19.05;55.65;99635.63;2078735;28;19932;-57
2023/03/29 01:05:53;;;;;;;;;;;;;;;19.04;55.81;99639.34;2081118;28;19928;-57
2023/03/29 01:06:57;;;;;;;;;;;;;;;19.05;55.82;99642.84;2077278;28;19928;-58
2023/03/29 01:08:01;;;;;;;;;;;;;;;19.03;55.70;99643.06;2079715;28;20016;-53
2023/03/29 01:09:06;;;;;;;;;;;;;;;19.03;55.43;99639.50;2079383;28;19928;-56
2023/03/29 01:10:10;;;;;;;;;;;;;;;19.04;55.73;99638.50;2078727;28;20486;-57
2023/03/29 01:11:14;;;;;;;;;;;;;;;19.02;55.36;99645.91;2076172;28;19933;-58
2023/03/29 01:12:18;;;;;;;;;;;;;;;18.98;55.56;99643.59;2076060;28;19989;-55
2023/03/29 01:13:25;;;;;;;;;;;;;;;19.01;55.56;99652.31;2075538;28;19929;-57
2023/03/29 01:14:28;;;;;;;;;;;;;;;18.99;55.50;99649.78;2077043;28;19967;-56
2023/03/29 01:15:30;;;;;;;;;;;;;;;18.97;55.84;99647.31;2075376;28;20935;-51
2023/03/29 01:16:31;;;;;;;;;;;;;;;18.98;55.84;99648.97;2074260;28;20043;-57
2023/03/29 01:17:33;;;;;;;;;;;;;;;18.98;55.55;99648.97;2070313;28;20066;-55
2023/03/29 01:18:34;;;;;;;;;;;;;;;18.98;55.40;99657.03;2074259;28;20425;-57
2023/03/29 01:19:39;;;;;;;;;;;;;;;18.98;55.49;99658.88;2075581;28;19940;-57
2023/03/29 01:20:44;;;;;;;;;;;;;;;18.98;55.31;99658.88;2082429;28;19933;-58
2023/03/29 01:21:50;;;;;;;;;;;;;;;18.96;55.17;99647.47;2074483;28;19936;-56
2023/03/29 01:23:02;;;;;;;;;;;;;;;18.94;55.34;99646.81;2077946;28;19928;-55
2023/03/29 01:24:18;;;;;;;;;;;;;;;18.93;55.37;99645.97;2075268;28;20040;-51
2023/03/29 01:25:24;;;;;;;;;;;;;;;18.95;55.73;99643.13;2068472;28;19932;-50
2023/03/29 01:26:32;;;;;;;;;;;;;;;18.94;55.44;99649.50;2074209;28;20881;-57
2023/03/29 01:27:48;;;;;;;;;;;;;;;18.93;55.38;99643.28;2075144;28;19928;-54
2023/03/29 01:28:52;;;;;;;;;;;;;;;18.93;55.53;99645.16;2078254;28;20445;-51
2023/03/29 01:29:56;;;;;;;;;;;;;;;18.91;55.45;99644.47;2073044;28;20688;-52
2023/03/29 01:31:02;;;;;;;;;;;;;;;18.93;55.24;99639.78;2077374;28;19929;-58
2023/03/29 01:32:07;;;;;;;;;;;;;;;18.91;55.43;99636.41;2078295;28;20031;-57
2023/03/29 01:33:12;;;;;;;;;;;;;;;18.90;55.24;99632.06;2075713;28;19951;-54
2023/03/29 01:34:15;;;;;;;;;;;;;;;18.92;55.24;99636.25;2077324;28;20529;-55
2023/03/29 01:35:20;;;;;;;;;;;;;;;18.89;55.62;99639.31;2076692;28;19940;-58
2023/03/29 01:36:23;;;;;;;;;;;;;;;18.89;55.50;99633.09;2084745;28;19933;-51
2023/03/29 01:37:28;;;;;;;;;;;;;;;18.89;55.45;99633.09;2077388;28;20468;-51
2023/03/29 01:38:32;;;;;;;;;;;;;;;18.88;55.51;99624.16;2078504;28;20023;-55
2023/03/29 01:39:34;;;;;;;;;;;;;;;18.86;55.43;99634.28;2075532;28;20006;-56
2023/03/29 01:40:34;;;;;;;;;;;;;;;18.88;55.54;99629.53;2076412;28;20003;-58
2023/03/29 01:41:43;;;;;;;;;;;;;;;18.84;55.35;99614.81;2076703;28;19933;-55
2023/03/29 01:42:49;;;;;;;;;;;;;;;18.86;55.42;99628.91;2069492;28;19968;-55
2023/03/29 01:43:55;;;;;;;;;;;;;;;18.85;55.23;99627.22;2076968;28;20019;-54
2023/03/29 01:45:01;;;;;;;;;;;;;;;18.86;55.19;99622.69;2078252;28;19932;-54
2023/03/29 01:46:04;;;;;;;;;;;;;;;18.85;55.28;99621.03;2078041;28;19932;-58
2023/03/29 01:47:09;;;;;;;;;;;;;;;18.84;55.53;99622.88;2081706;28;19985;-52
2023/03/29 01:48:16;;;;;;;;;;;;;;;18.83;55.35;99623.03;2077828;28;19928;-56
2023/03/29 01:49:21;;;;;;;;;;;;;;;18.84;55.68;99625.56;2076247;28;20023;-57
2023/03/29 01:50:28;;;;;;;;;;;;;;;18.82;55.73;99616.84;2079489;28;19928;-57
2023/03/29 01:51:34;;;;;;;;;;;;;;;18.82;55.39;99616.00;2084056;27;19929;-55
2023/03/29 01:52:38;;;;;;;;;;;;;;;18.78;55.83;99610.16;2078484;28;20354;-54
2023/03/29 01:53:41;;;;;;;;;;;;;;;18.76;55.67;99612.19;2081859;28;19978;-53
2023/03/29 01:54:46;;;;;;;;;;;;;;;18.79;55.51;99609.13;2079418;28;19955;-53
2023/03/29 01:55:50;;;;;;;;;;;;;;;18.80;55.15;99605.44;2080668;28;20402;-53
2023/03/29 01:56:51;;;;;;;;;;;;;;;18.78;55.29;99601.25;2079313;28;19944;-53
2023/03/29 01:57:55;;;;;;;;;;;;;;;18.79;55.67;99598.38;2078565;28;19940;-55
2023/03/29 01:58:58;;;;;;;;;;;;;;;18.80;55.24;99601.91;2079428;28;19932;-55
2023/03/29 01:59:59;;;;;;;;;;;;;;;18.76;55.48;99601.44;2080997;28;19936;-53
2023/03/29 02:01:04;;;;;;;;;;;;;;;18.78;55.33;99598.56;2077900;28;20353;-54
2023/03/29 02:02:07;;;;;;;;;;;;;;;18.79;54.97;99598.38;2077425;28;19932;-52
2023/03/29 02:03:09;;;;;;;;;;;;;;;18.77;55.41;99597.72;2075867;28;19982;-53
2023/03/29 02:04:12;;;;;;;;;;;;;;;18.78;55.19;99595.88;2076930;28;20427;-54
2023/03/29 02:05:14;;;;;;;;;;;;;;;18.76;55.29;99598.75;2078123;28;20019;-52
2023/03/29 02:06:17;;;;;;;;;;;;;;;18.76;55.25;99596.06;2078520;28;20597;-52
2023/03/29 02:07:21;;;;;;;;;;;;;;;18.75;55.32;99597.09;2080261;28;19995;-53
2023/03/29 02:08:22;;;;;;;;;;;;;;;18.74;55.29;99598.91;2077164;28;19925;-55
2023/03/29 02:09:23;;;;;;;;;;;;;;;18.73;55.60;99593.72;2074453;28;20363;-53
2023/03/29 02:10:25;;;;;;;;;;;;;;;18.70;55.41;99594.91;2078676;28;19928;-54
2023/03/29 02:11:28;;;;;;;;;;;;;;;18.71;55.35;99591.19;2077992;28;19932;-52
2023/03/29 02:12:28;;;;;;;;;;;;;;;18.72;55.29;99590.19;2077091;28;19929;-53
2023/03/29 02:13:31;;;;;;;;;;;;;;;18.69;55.56;99587.00;2074870;28;20049;-53
2023/03/29 02:14:32;;;;;;;;;;;;;;;18.68;55.50;99588.03;2077421;28;19932;-54
2023/03/29 02:15:33;;;;;;;;;;;;;;;18.70;55.39;99580.66;2074974;28;19967;-54
2023/03/29 02:16:34;;;;;;;;;;;;;;;18.69;55.23;99582.50;2079871;28;19936;-52
2023/03/29 02:17:36;;;;;;;;;;;;;;;18.70;55.31;99581.47;2077261;28;19929;-54
2023/03/29 02:18:37;;;;;;;;;;;;;;;18.69;55.41;99584.31;2074104;28;20003;-53
2023/03/29 02:19:39;;;;;;;;;;;;;;;18.69;55.20;99585.19;2077262;28;19935;-55
2023/03/29 02:20:46;;;;;;;;;;;;;;;18.68;55.19;99588.03;2077066;28;20081;-55
2023/03/29 02:21:50;;;;;;;;;;;;;;;18.67;55.32;99586.38;2076532;28;19936;-52
2023/03/29 02:22:55;;;;;;;;;;;;;;;18.66;55.36;99588.22;2085932;28;20398;-55
2023/03/29 02:23:58;;;;;;;;;;;;;;;18.67;55.04;99586.38;2077662;28;19972;-53
2023/03/29 02:25:02;;;;;;;;;;;;;;;18.66;55.26;99579.31;2077571;28;20059;-55
2023/03/29 02:26:05;;;;;;;;;;;;;;;18.66;55.30;99579.31;2081431;28;19974;-54
2023/03/29 02:27:06;;;;;;;;;;;;;;;18.66;54.91;99590.06;2087574;28;19936;-53
2023/03/29 02:28:08;;;;;;;;;;;;;;;18.64;55.29;99594.81;2087484;28;19924;-52
2023/03/29 02:29:10;;;;;;;;;;;;;;;18.64;55.29;99586.75;2087618;28;20319;-53
2023/03/29 02:30:13;;;;;;;;;;;;;;;18.64;55.16;99584.88;2087918;28;20023;-55
2023/03/29 02:31:19;;;;;;;;;;;;;;;18.64;55.48;99576.00;2087287;28;19925;-53
2023/03/29 02:32:20;;;;;;;;;;;;;;;18.63;54.95;99575.13;2086551;28;20035;-55
2023/03/29 02:33:25;;;;;;;;;;;;;;;18.64;55.51;99570.63;2088770;28;19982;-53
2023/03/29 02:34:28;;;;;;;;;;;;;;;18.62;55.08;99572.66;2087306;28;19929;-53
2023/03/29 02:35:35;;;;;;;;;;;;;;;18.62;55.38;99572.66;2088053;28;19924;-52
2023/03/29 02:36:39;;;;;;;;;;;;;;;18.61;55.24;99577.19;2087302;28;19929;-54
2023/03/29 02:37:41;;;;;;;;;;;;;;;18.60;55.59;99571.97;2087488;28;19932;-54
2023/03/29 02:38:42;;;;;;;;;;;;;;;18.59;55.40;99570.31;2085248;28;19929;-53
2023/03/29 02:39:46;;;;;;;;;;;;;;;18.60;55.11;99580.88;2086810;28;19975;-54
2023/03/29 02:40:47;;;;;;;;;;;;;;;18.60;55.46;99572.81;2084927;28;20394;-53
2023/03/29 02:41:49;;;;;;;;;;;;;;;18.60;55.17;99574.69;2087197;28;19925;-53
2023/03/29 02:42:52;;;;;;;;;;;;;;;18.57;55.17;99575.88;2088430;28;20482;-55
2023/03/29 02:43:54;;;;;;;;;;;;;;;18.57;55.12;99581.25;2087281;28;20413;-56
2023/03/29 02:44:57;;;;;;;;;;;;;;;18.58;55.25;99582.06;2088237;28;20493;-54
2023/03/29 02:45:59;;;;;;;;;;;;;;;18.58;55.54;99582.06;2087540;28;20085;-51
2023/03/29 02:47:03;;;;;;;;;;;;;;;18.59;55.47;99579.22;2086539;28;19929;-55
2023/03/29 02:48:06;;;;;;;;;;;;;;;18.58;55.04;99574.84;2087292;28;19938;-54
2023/03/29 02:49:07;;;;;;;;;;;;;;;18.56;55.34;99573.38;2086503;28;19972;-51
2023/03/29 02:50:08;;;;;;;;;;;;;;;18.54;55.37;99582.44;2088596;28;20412;-54
2023/03/29 02:51:14;;;;;;;;;;;;;;;18.54;55.33;99576.22;2086605;28;19937;-52
2023/03/29 02:52:17;;;;;;;;;;;;;;;18.53;55.44;99569.19;2088512;28;19935;-55
2023/03/29 02:53:19;;;;;;;;;;;;;;;18.53;55.11;99566.50;2087754;28;20655;-54
2023/03/29 02:54:22;;;;;;;;;;;;;;;18.50;55.10;99575.75;2082989;28;19933;-54
2023/03/29 02:55:24;;;;;;;;;;;;;;;18.50;55.32;99570.38;2077103;28;19932;-53
2023/03/29 02:56:25;;;;;;;;;;;;;;;18.54;55.53;99568.16;2074030;28;19940;-53
2023/03/29 02:57:27;;;;;;;;;;;;;;;18.53;55.61;99569.19;2077706;28;20052;-53
2023/03/29 02:58:30;;;;;;;;;;;;;;;18.54;55.19;99570.84;2078019;28;19976;-52
2023/03/29 02:59:32;;;;;;;;;;;;;;;18.53;55.71;99571.88;2076662;28;19932;-55
2023/03/29 03:00:35;;;;;;;;;;;;;;;18.54;55.28;99578.91;2077412;28;19928;-52
2023/03/29 03:01:36;;;;;;;;;;;;;;;18.54;55.43;99577.06;2076814;28;24179;-55
2023/03/29 03:02:37;;;;;;;;;;;;;;;18.52;55.44;99579.09;2075797;28;19932;-53
2023/03/29 03:03:40;;;;;;;;;;;;;;;18.50;55.56;99578.44;2075067;28;19983;-54
2023/03/29 03:04:40;;;;;;;;;;;;;;;18.49;55.57;99568.69;2077658;28;19977;-52
2023/03/29 03:05:42;;;;;;;;;;;;;;;18.49;55.33;99566.00;2080679;28;20928;-53
2023/03/29 03:06:43;;;;;;;;;;;;;;;18.47;55.32;99576.13;2076120;28;20516;-54
2023/03/29 03:07:44;;;;;;;;;;;;;;;18.46;55.55;99571.75;2080950;28;19929;-52
2023/03/29 03:08:45;;;;;;;;;;;;;;;18.49;55.48;99576.75;2075246;28;20362;-53
2023/03/29 03:09:47;;;;;;;;;;;;;;;18.49;55.44;99579.44;2075821;28;19928;-53
2023/03/29 03:10:47;;;;;;;;;;;;;;;18.47;55.22;99567.22;2076881;28;19924;-54
2023/03/29 03:11:49;;;;;;;;;;;;;;;18.49;55.18;99574.06;2076964;28;19940;-56
2023/03/29 03:12:50;;;;;;;;;;;;;;;18.52;55.21;99573.72;2073654;28;19929;-53
2023/03/29 03:13:51;;;;;;;;;;;;;;;18.53;55.14;99575.41;2078854;28;20050;-54
2023/03/29 03:14:51;;;;;;;;;;;;;;;18.54;55.24;99578.91;2078910;28;19971;-55
2023/03/29 03:15:54;;;;;;;;;;;;;;;18.53;55.12;99567.34;2074802;28;19936;-54
2023/03/29 03:16:56;;;;;;;;;;;;;;;18.56;54.67;99573.38;2075337;28;19955;-55
2023/03/29 03:17:58;;;;;;;;;;;;;;;18.56;55.13;99568.84;2078613;28;19929;-55
2023/03/29 03:18:59;;;;;;;;;;;;;;;18.56;54.76;99573.38;2077468;28;19935;-53
2023/03/29 03:20:01;;;;;;;;;;;;;;;18.57;54.83;99575.03;2079355;28;20022;-55
2023/03/29 03:21:03;;;;;;;;;;;;;;;18.56;55.03;99573.38;2078282;28;20010;-55
2023/03/29 03:22:04;;;;;;;;;;;;;;;18.55;54.97;99567.16;2077573;28;20394;-54
2023/03/29 03:23:07;;;;;;;;;;;;;;;18.56;55.02;99568.84;2082906;28;20471;-55
2023/03/29 03:24:09;;;;;;;;;;;;;;;18.56;54.74;99562.63;2086115;28;19940;-54
2023/03/29 03:25:10;;;;;;;;;;;;;;;18.56;54.61;99566.16;2085834;28;20436;-55
2023/03/29 03:26:11;;;;;;;;;;;;;;;18.57;54.94;99564.28;2078697;28;19936;-55
2023/03/29 03:27:12;;;;;;;;;;;;;;;18.56;54.59;99568.84;2077183;28;19929;-55
2023/03/29 03:28:13;;;;;;;;;;;;;;;18.56;54.73;99565.31;2076437;28;19932;-54
2023/03/29 03:29:14;;;;;;;;;;;;;;;18.56;54.56;99568.00;2080346;28;20788;-52
2023/03/29 03:30:16;;;;;;;;;;;;;;;18.54;54.36;99571.69;2071574;28;19982;-52
2023/03/29 03:31:20;;;;;;;;;;;;;;;18.54;54.31;99566.31;2074828;28;20926;-56
2023/03/29 03:32:21;;;;;;;;;;;;;;;18.55;54.01;99564.47;2072089;28;20256;-54
2023/03/29 03:33:22;;;;;;;;;;;;;;;18.57;53.84;99562.44;2079652;28;20383;-57
2023/03/29 03:34:23;;;;;;;;;;;;;;;18.58;53.92;99568.63;2076615;28;19932;-55
2023/03/29 03:35:24;;;;;;;;;;;;;;;18.60;54.05;99559.38;2078598;28;19956;-58
2023/03/29 03:36:27;;;;;;;;;;;;;;;18.63;53.56;99560.88;2074648;28;20457;-56
2023/03/29 03:37:29;;;;;;;;;;;;;;;18.66;53.61;99563.19;2077529;28;19932;-56
2023/03/29 03:38:29;;;;;;;;;;;;;;;18.68;53.64;99563.84;2077523;28;19985;-52
2023/03/29 03:39:31;;;;;;;;;;;;;;;18.70;53.59;99562.66;2072583;28;20535;-56
2023/03/29 03:40:33;;;;;;;;;;;;;;;18.72;53.61;99557.94;2078435;28;20683;-56
2023/03/29 03:41:33;;;;;;;;;;;;;;;18.76;53.39;99555.75;2072944;28;19932;-56
2023/03/29 03:42:35;;;;;;;;;;;;;;;18.81;53.05;99558.75;2076237;28;19928;-56
2023/03/29 03:43:35;;;;;;;;;;;;;;;18.83;53.24;99559.38;2072537;28;19978;-57
2023/03/29 03:44:37;;;;;;;;;;;;;;;18.87;52.85;99558.00;2073455;28;20023;-57
2023/03/29 03:45:39;;;;;;;;;;;;;;;18.93;52.79;99551.88;2073484;28;20017;-56
2023/03/29 03:46:41;;;;;;;;;;;;;;;18.96;52.60;99561.44;2073265;28;19929;-56
2023/03/29 03:47:42;;;;;;;;;;;;;;;19.02;53.09;99557.19;2075021;28;20359;-57
2023/03/29 03:48:43;;;;;;;;;;;;;;;19.07;52.54;99550.22;2076488;28;19929;-56
2023/03/29 03:49:44;;;;;;;;;;;;;;;19.10;52.60;99549.03;2074760;28;19999;-57
2023/03/29 03:50:46;;;;;;;;;;;;;;;19.15;52.79;99549.31;2075334;28;19933;-57
2023/03/29 03:51:48;;;;;;;;;;;;;;;19.18;52.50;99546.25;2069780;28;19933;-55
2023/03/29 03:52:48;;;;;;;;;;;;;;;19.23;52.62;99546.53;2073580;28;19932;-55
2023/03/29 03:53:50;;;;;;;;;;;;;;;19.26;52.31;99546.16;2076627;28;19933;-56
2023/03/29 03:54:50;;;;;;;;;;;;;;;19.29;52.35;99551.16;2079441;28;19952;-54
2023/03/29 03:55:54;;;;;;;;;;;;;;;19.31;52.39;99551.81;2074289;28;20287;-56
2023/03/29 03:56:55;;;;;;;;;;;;;;;19.34;52.12;99546.06;2074694;28;19939;-56
2023/03/29 03:57:56;;;;;;;;;;;;;;;19.36;52.23;99541.34;2074453;28;21532;-52
2023/03/29 03:58:57;;;;;;;;;;;;;;;19.39;52.32;99535.59;2073471;28;20317;-56
2023/03/29 03:59:58;;;;;;;;;;;;;;;19.42;52.30;99537.06;2073456;28;19932;-55
2023/03/29 04:01:00;;;;;;;;;;;;;;;19.43;52.20;99531.50;2072461;28;19932;-54
2023/03/29 04:02:03;;;;;;;;;;;;;;;19.46;52.04;99532.97;2070721;28;19981;-53
2023/03/29 04:03:04;;;;;;;;;;;;;;;19.48;51.98;99533.63;2076629;28;19929;-52
2023/03/29 04:04:07;;;;;;;;;;;;;;;19.51;51.98;99532.44;2076342;28;19974;-55
2023/03/29 04:05:07;;;;;;;;;;;;;;;19.51;52.12;99529.72;2076768;28;19967;-54
2023/03/29 04:06:09;;;;;;;;;;;;;;;19.52;52.01;99532.22;2074912;28;19929;-55
2023/03/29 04:07:11;;;;;;;;;;;;;;;19.53;51.80;99527.66;2075228;28;19928;-52
2023/03/29 04:08:14;;;;;;;;;;;;;;;19.55;51.85;99531.00;2074368;28;19960;-54
2023/03/29 04:09:14;;;;;;;;;;;;;;;19.58;52.10;99536.00;2075924;28;19977;-54
2023/03/29 04:10:16;;;;;;;;;;;;;;;19.58;52.07;99533.31;2079455;28;21835;-53
2023/03/29 04:11:16;;;;;;;;;;;;;;;19.61;51.86;99539.19;2075134;28;20032;-58
2023/03/29 04:12:18;;;;;;;;;;;;;;;19.62;51.49;99534.63;2081030;28;19963;-52
2023/03/29 04:13:18;;;;;;;;;;;;;;;19.62;51.65;99531.94;2075574;28;19986;-53
2023/03/29 04:14:20;;;;;;;;;;;;;;;19.66;51.48;99535.94;2075116;28;20436;-53
2023/03/29 04:15:20;;;;;;;;;;;;;;;19.66;51.51;99533.25;2075544;28;19935;-53
2023/03/29 04:16:22;;;;;;;;;;;;;;;19.63;52.00;99529.03;2076370;28;19967;-55
2023/03/29 04:17:26;;;;;;;;;;;;;;;19.67;51.60;99534.09;2073362;28;19939;-55
2023/03/29 04:18:26;;;;;;;;;;;;;;;19.66;51.47;99529.72;2076250;28;20534;-53
2023/03/29 04:19:28;;;;;;;;;;;;;;;19.67;51.59;99524.19;2080047;28;20477;-54
2023/03/29 04:20:28;;;;;;;;;;;;;;;19.67;51.99;99518.78;2076523;28;19981;-53
2023/03/29 04:21:30;;;;;;;;;;;;;;;19.70;51.58;99526.47;2076920;28;19986;-54
2023/03/29 04:22:30;;;;;;;;;;;;;;;19.71;51.61;99517.38;2078855;28;19924;-54
2023/03/29 04:23:31;;;;;;;;;;;;;;;19.70;51.68;99513.03;2078809;28;20592;-55
2023/03/29 04:24:32;;;;;;;;;;;;;;;19.71;51.65;99519.25;2084736;28;20067;-55
2023/03/29 04:25:34;;;;;;;;;;;;;;;19.72;51.52;99510.13;2085994;28;19932;-56
2023/03/29 04:26:34;;;;;;;;;;;;;;;19.72;51.76;99510.97;2083459;28;20615;-52
2023/03/29 04:27:36;;;;;;;;;;;;;;;19.72;51.62;99515.50;2086097;28;19929;-54
2023/03/29 04:28:36;;;;;;;;;;;;;;;19.72;51.60;99513.66;2087988;28;19939;-55
2023/03/29 04:29:38;;;;;;;;;;;;;;;19.73;51.62;99511.81;2083469;28;19974;-55
2023/03/29 04:30:38;;;;;;;;;;;;;;;19.73;51.51;99512.66;2084104;28;20025;-55
2023/03/29 04:31:40;;;;;;;;;;;;;;;19.74;51.59;99517.00;2083381;28;19928;-53
2023/03/29 04:32:42;;;;;;;;;;;;;;;19.76;51.14;99522.19;2085601;28;19936;-54
2023/03/29 04:33:45;;;;;;;;;;;;;;;19.78;51.54;99529.06;2084346;28;19979;-52
2023/03/29 04:34:46;;;;;;;;;;;;;;;19.79;51.56;99532.59;2087588;28;19975;-53
2023/03/29 04:35:47;;;;;;;;;;;;;;;19.79;51.12;99530.72;2085704;28;20307;-54
2023/03/29 04:36:49;;;;;;;;;;;;;;;19.79;51.51;99528.03;2083602;28;19965;-54
2023/03/29 04:37:53;;;;;;;;;;;;;;;19.79;51.18;99524.50;2086620;28;19952;-55
2023/03/29 04:38:53;;;;;;;;;;;;;;;19.77;51.41;99535.44;2087068;28;19929;-54
2023/03/29 04:39:56;;;;;;;;;;;;;;;19.76;51.28;99532.97;2086479;28;19937;-53
2023/03/29 04:40:57;;;;;;;;;;;;;;;19.78;51.42;99529.06;2088684;28;19928;-55
2023/03/29 04:41:58;;;;;;;;;;;;;;;19.81;51.05;99533.25;2086002;28;19925;-52
2023/03/29 04:42:59;;;;;;;;;;;;;;;19.80;51.22;99531.56;2087665;28;20594;-54
2023/03/29 04:44:01;;;;;;;;;;;;;;;19.80;51.33;99529.69;2088145;28;20007;-52
2023/03/29 04:45:01;;;;;;;;;;;;;;;19.80;51.23;99529.69;2087408;28;19932;-52
2023/03/29 04:46:06;;;;;;;;;;;;;;;19.80;51.14;99523.47;2089016;28;20377;-53
2023/03/29 04:47:06;;;;;;;;;;;;;;;19.81;50.98;99525.16;2087804;28;19964;-55
2023/03/29 04:48:09;;;;;;;;;;;;;;;19.82;51.06;99526.81;2087053;28;19924;-55
2023/03/29 04:49:10;;;;;;;;;;;;;;;19.82;51.09;99524.13;2088595;28;19944;-54
2023/03/29 04:50:12;;;;;;;;;;;;;;;19.82;50.73;99529.50;2087960;28;19925;-50
2023/03/29 04:51:13;;;;;;;;;;;;;;;19.81;51.14;99523.31;2085741;28;19932;-53
2023/03/29 04:52:14;;;;;;;;;;;;;;;19.83;51.02;99532.00;2084870;28;20030;-55
2023/03/29 04:53:15;;;;;;;;;;;;;;;19.84;50.95;99536.38;2085738;28;20593;-51
2023/03/29 04:54:16;;;;;;;;;;;;;;;19.85;50.73;99532.66;2089247;28;19931;-54
2023/03/29 04:55:17;;;;;;;;;;;;;;;19.84;51.13;99536.38;2089522;28;19930;-55
2023/03/29 04:56:18;;;;;;;;;;;;;;;19.85;50.90;99535.34;2085253;28;19933;-55
2023/03/29 04:57:19;;;;;;;;;;;;;;;19.84;51.11;99536.38;2080656;27;19928;-53
2023/03/29 04:58:20;;;;;;;;;;;;;;;19.85;51.10;99535.34;2077759;28;20182;-54
2023/03/29 04:59:21;;;;;;;;;;;;;;;19.85;51.06;99531.81;2079571;28;20508;-55
2023/03/29 05:00:26;;;;;;;;;;;;;;;19.85;51.01;99532.66;2081949;28;19959;-54
2023/03/29 05:01:26;;;;;;;;;;;;;;;19.85;50.91;99527.25;2078260;28;19937;-54
2023/03/29 05:02:31;;;;;;;;;;;;;;;19.86;50.99;99528.09;2078202;28;20867;-56
2023/03/29 05:03:33;;;;;;;;;;;;;;;19.84;50.92;99528.31;2079399;28;21628;-54
2023/03/29 05:04:35;;;;;;;;;;;;;;;19.85;51.01;99531.81;2080322;28;19932;-54
2023/03/29 05:05:37;;;;;;;;;;;;;;;19.85;51.08;99527.25;2079737;28;19956;-54
2023/03/29 05:06:37;;;;;;;;;;;;;;;19.85;50.84;99527.25;2082121;28;19944;-51
2023/03/29 05:07:39;;;;;;;;;;;;;;;19.85;50.96;99531.81;2078702;28;20871;-54
2023/03/29 05:08:40;;;;;;;;;;;;;;;19.85;50.60;99532.66;2082070;28;19928;-54
2023/03/29 05:09:42;;;;;;;;;;;;;;;19.85;51.01;99537.22;2079842;28;21106;-55
2023/03/29 05:10:43;;;;;;;;;;;;;;;19.88;50.92;99530.63;2080484;28;20075;-53
2023/03/29 05:11:44;;;;;;;;;;;;;;;19.85;50.59;99535.34;2083978;28;20023;-54
2023/03/29 05:12:45;;;;;;;;;;;;;;;19.86;50.97;99531.66;2078247;28;19963;-54
2023/03/29 05:13:47;;;;;;;;;;;;;;;19.86;50.65;99538.88;2081509;28;19933;-55
2023/03/29 05:14:47;;;;;;;;;;;;;;;19.85;50.93;99534.50;2079043;28;20586;-54
2023/03/29 05:15:49;;;;;;;;;;;;;;;19.85;50.69;99537.22;2080695;28;20014;-52
2023/03/29 05:16:49;;;;;;;;;;;;;;;19.83;50.88;99545.47;2078709;28;20198;-55
2023/03/29 05:17:51;;;;;;;;;;;;;;;19.84;50.72;99551.69;2079201;28;19928;-54
2023/03/29 05:18:54;;;;;;;;;;;;;;;19.85;50.77;99550.66;2080358;28;20586;-55
2023/03/29 05:19:55;;;;;;;;;;;;;;;19.84;50.60;99551.69;2081037;28;19978;-54
2023/03/29 05:20:56;;;;;;;;;;;;;;;19.81;50.73;99552.91;2081586;28;20053;-53
2023/03/29 05:21:58;;;;;;;;;;;;;;;19.83;50.70;99561.63;2081234;28;19924;-54
2023/03/29 05:22:59;;;;;;;;;;;;;;;19.82;50.87;99554.56;2079716;28;20051;-54
2023/03/29 05:24:01;;;;;;;;;;;;;;;19.81;50.86;99554.78;2080116;28;20548;-54
2023/03/29 05:25:02;;;;;;;;;;;;;;;19.81;50.64;99558.28;2081110;28;19928;-54